createdAt,value
2022-12-13T00:04:35.814Z,100.00
2022-12-13T00:09:36.936Z,100.00
2022-12-13T00:14:37.680Z,100.00
2022-12-13T00:19:38.477Z,100.00
2022-12-13T00:24:45.766Z,100.00
2022-12-13T00:29:46.878Z,100.00
2022-12-13T00:34:47.849Z,100.00
2022-12-13T00:39:48.623Z,100.00
2022-12-13T00:44:49.732Z,100.00
2022-12-13T00:49:50.521Z,100.00
2022-12-13T00:54:51.305Z,100.00
2022-12-13T00:59:52.057Z,100.00
2022-12-13T01:04:52.861Z,100.00
2022-12-13T01:09:53.633Z,100.00
2022-12-13T01:14:56.229Z,100.00
2022-12-13T01:19:57.850Z,100.00
2022-12-13T01:24:58.549Z,100.00
2022-12-13T01:29:59.308Z,100.00
2022-12-13T01:35:00.296Z,100.00
2022-12-13T01:40:01.175Z,100.00
2022-12-13T01:45:06.809Z,100.00
2022-12-13T01:50:13.497Z,100.00
2022-12-13T01:55:16.228Z,100.00
2022-12-13T02:00:17.638Z,100.00
2022-12-13T02:05:31.100Z,100.00
2022-12-13T02:10:32.190Z,100.00
2022-12-13T02:15:54.095Z,100.00
2022-12-13T02:21:30.199Z,100.00
2022-12-13T02:27:00.108Z,100.00
2022-12-13T02:32:07.716Z,100.00
2022-12-13T02:37:30.039Z,100.00
2022-12-13T02:42:37.087Z,100.00
2022-12-13T02:47:42.739Z,100.00
2022-12-13T02:52:45.803Z,100.00
2022-12-13T02:57:47.937Z,100.00
2022-12-13T03:03:33.995Z,100.00
2022-12-13T03:15:38.888Z,100.00
2022-12-13T03:20:39.693Z,100.00
2022-12-13T03:25:40.512Z,100.00
2022-12-13T03:30:41.383Z,100.00
2022-12-13T03:35:44.371Z,100.00
2022-12-13T03:40:46.413Z,100.00
2022-12-13T03:45:47.161Z,100.00
2022-12-13T03:50:49.206Z,100.00
2022-12-13T03:55:49.970Z,100.00
2022-12-13T04:00:50.850Z,100.00
2022-12-13T04:05:51.585Z,100.00
2022-12-13T04:10:52.511Z,100.00
2022-12-13T04:15:53.279Z,100.00
2022-12-13T04:20:54.146Z,100.00
2022-12-13T04:25:55.031Z,100.00
2022-12-13T04:30:55.803Z,100.00
2022-12-13T04:35:56.500Z,100.00
2022-12-13T04:41:08.277Z,100.00
2022-12-13T04:46:09.361Z,100.00
2022-12-13T04:51:10.597Z,100.00
2022-12-13T04:56:11.311Z,100.00
2022-12-13T05:01:12.719Z,100.00
2022-12-13T05:06:26.648Z,100.00
2022-12-13T05:11:35.809Z,100.00
2022-12-13T05:16:37.036Z,100.00
2022-12-13T05:21:37.947Z,100.00
2022-12-13T05:26:38.708Z,100.00
2022-12-13T05:31:39.511Z,100.00
2022-12-13T05:36:40.328Z,100.00
2022-12-13T05:41:41.952Z,100.00
2022-12-13T05:46:42.766Z,100.00
2022-12-13T05:51:44.251Z,100.00
2022-12-13T05:56:45.014Z,100.00
2022-12-13T06:01:45.885Z,100.00
2022-12-13T06:06:46.581Z,100.00
2022-12-13T06:11:51.935Z,100.00
2022-12-13T06:17:02.987Z,100.00
2022-12-13T06:22:04.678Z,100.00
2022-12-13T06:27:05.415Z,100.00
2022-12-13T06:32:06.435Z,100.00
2022-12-13T06:37:11.417Z,100.00
2022-12-13T06:42:21.664Z,100.00
2022-12-13T06:47:32.207Z,100.00
2022-12-13T06:52:34.298Z,100.00
2022-12-13T06:57:35.183Z,100.00
2022-12-13T07:02:37.489Z,100.00
2022-12-13T07:07:38.432Z,100.00
2022-12-13T07:12:39.569Z,100.00
2022-12-13T07:17:41.864Z,100.00
2022-12-13T07:22:47.827Z,100.00
2022-12-13T07:28:03.591Z,100.00
2022-12-13T07:33:05.421Z,100.00
2022-12-13T07:38:08.415Z,100.00
2022-12-13T07:43:09.656Z,100.00
2022-12-13T07:48:10.433Z,100.00
2022-12-13T07:53:11.335Z,100.00
2022-12-13T07:58:15.070Z,100.00
2022-12-13T08:03:24.568Z,100.00
2022-12-13T08:08:31.530Z,100.00
2022-12-13T08:13:33.446Z,100.00
2022-12-13T08:18:34.432Z,100.00
2022-12-13T08:23:35.911Z,100.00
2022-12-13T08:28:37.277Z,100.00
2022-12-13T08:33:39.667Z,100.00
2022-12-13T08:38:41.077Z,100.00
2022-12-13T08:43:41.943Z,100.00
2022-12-13T08:48:44.252Z,100.00
2022-12-13T08:53:45.567Z,100.00
2022-12-13T08:58:51.062Z,100.00
2022-12-13T09:03:55.227Z,100.00
2022-12-13T09:08:56.106Z,100.00
2022-12-13T09:14:01.528Z,100.00
2022-12-13T09:19:24.752Z,100.00
2022-12-13T09:24:27.733Z,100.00
2022-12-13T09:29:28.426Z,100.00
2022-12-13T09:34:29.264Z,100.00
2022-12-13T09:39:30.104Z,100.00
2022-12-13T09:44:43.798Z,100.00
2022-12-13T09:49:52.193Z,100.00
2022-12-13T09:54:58.459Z,100.00
2022-12-13T10:00:02.786Z,100.00
2022-12-13T10:05:44.898Z,100.00
2022-12-13T10:10:45.851Z,100.00
2022-12-13T10:16:06.297Z,100.00
2022-12-13T10:21:11.071Z,100.00
2022-12-13T10:26:23.970Z,100.00
2022-12-13T10:31:25.554Z,100.00
2022-12-13T10:36:32.237Z,98.02
2022-12-13T10:41:38.328Z,100.00
2022-12-13T10:46:42.077Z,99.69
2022-12-13T10:51:43.626Z,93.89
2022-12-13T10:56:53.116Z,95.24
2022-12-13T11:01:54.463Z,96.89
2022-12-13T11:06:58.150Z,97.07
2022-12-13T11:12:10.565Z,96.71
2022-12-13T11:17:20.154Z,95.62
2022-12-13T11:22:39.457Z,95.34
2022-12-13T11:29:42.886Z,96.03
2022-12-13T11:35:08.544Z,95.10
2022-12-13T11:40:40.058Z,93.10
2022-12-13T11:45:50.223Z,90.72
2022-12-13T11:50:54.987Z,89.86
2022-12-13T11:56:45.369Z,87.14
2022-12-13T12:02:57.977Z,85.30
2022-12-13T12:08:31.721Z,85.91
2022-12-13T12:13:50.503Z,84.90
2022-12-13T12:18:52.636Z,78.96
2022-12-13T12:27:22.269Z,78.28
2022-12-13T12:32:46.231Z,78.81
2022-12-13T12:38:20.450Z,77.83
2022-12-13T12:43:58.376Z,80.56
2022-12-13T12:50:00.740Z,81.80
2022-12-13T12:58:07.682Z,83.41
2022-12-13T13:03:22.557Z,81.91
2022-12-13T13:10:26.957Z,81.88
2022-12-13T13:16:28.495Z,83.59
2022-12-13T13:21:37.490Z,83.17
2022-12-13T13:26:56.542Z,83.50
2022-12-13T13:33:50.434Z,84.87
2022-12-13T13:38:52.792Z,88.27
2022-12-13T13:43:53.604Z,86.01
2022-12-13T13:49:01.333Z,83.31
2022-12-13T13:54:41.260Z,82.25
2022-12-13T14:00:17.013Z,83.30
2022-12-13T14:13:29.262Z,81.33
2022-12-13T14:22:07.672Z,85.91
2022-12-13T14:27:35.450Z,89.04
2022-12-13T14:32:38.683Z,91.14
2022-12-13T14:37:39.505Z,92.95
2022-12-13T14:42:41.527Z,93.49
2022-12-13T14:47:49.465Z,95.64
2022-12-13T14:52:50.557Z,96.90
2022-12-13T14:57:57.213Z,96.78
2022-12-13T15:03:01.948Z,96.80
2022-12-13T15:08:10.820Z,96.34
2022-12-13T15:14:12.737Z,96.77
2022-12-13T15:19:31.060Z,97.04
2022-12-13T15:24:41.102Z,97.92
2022-12-13T15:29:53.589Z,98.45
2022-12-13T15:34:54.846Z,97.77
2022-12-13T15:39:58.999Z,98.72
2022-12-13T15:45:05.671Z,98.78
2022-12-13T15:50:07.830Z,99.59
2022-12-13T15:55:36.303Z,99.14
2022-12-13T16:00:37.083Z,99.25
2022-12-13T16:05:48.411Z,98.50
2022-12-13T16:10:52.372Z,98.78
2022-12-13T16:15:59.805Z,98.39
2022-12-13T16:21:01.351Z,99.11
2022-12-13T16:26:08.514Z,99.46
2022-12-13T16:31:34.513Z,100.00
2022-12-13T16:36:35.967Z,100.00
2022-12-13T16:41:38.872Z,100.00
2022-12-13T16:47:13.096Z,100.00
2022-12-13T16:52:21.094Z,100.00
2022-12-13T16:57:21.826Z,100.00
2022-12-13T17:02:22.896Z,100.00
2022-12-13T17:07:23.764Z,100.00
2022-12-13T17:12:25.611Z,100.00
2022-12-13T17:17:26.677Z,100.00
2022-12-13T17:22:27.575Z,100.00
2022-12-13T17:27:29.313Z,100.00
2022-12-13T17:32:30.036Z,100.00
2022-12-13T17:37:31.360Z,100.00
2022-12-13T17:42:33.757Z,100.00
2022-12-13T17:47:34.505Z,100.00
2022-12-13T17:52:37.412Z,100.00
2022-12-13T17:57:38.122Z,100.00
2022-12-13T18:02:39.134Z,100.00
2022-12-13T18:07:40.141Z,100.00
2022-12-13T18:12:40.903Z,100.00
2022-12-13T18:18:10.167Z,99.37
2022-12-13T18:23:12.853Z,99.96
2022-12-13T18:28:13.576Z,100.00
2022-12-13T18:33:14.350Z,100.00
2022-12-13T18:38:15.140Z,100.00
2022-12-13T18:43:17.504Z,100.00
2022-12-13T18:48:19.236Z,100.00
2022-12-13T18:53:19.964Z,100.00
2022-12-13T18:58:20.721Z,100.00
2022-12-13T19:03:21.552Z,100.00
2022-12-13T19:08:25.298Z,100.00
2022-12-13T19:13:27.230Z,100.00
2022-12-13T19:18:29.085Z,100.00
2022-12-13T19:23:30.317Z,100.00
2022-12-13T19:28:32.156Z,100.00
2022-12-13T19:33:34.256Z,100.00
2022-12-13T19:38:35.200Z,100.00
2022-12-13T19:43:36.104Z,100.00
2022-12-13T19:48:38.101Z,100.00
2022-12-13T19:53:39.167Z,100.00
2022-12-13T19:58:40.323Z,100.00
2022-12-13T20:03:44.738Z,100.00
2022-12-13T20:08:46.189Z,100.00
2022-12-13T20:13:48.573Z,100.00
2022-12-13T20:18:54.981Z,100.00
2022-12-13T20:23:57.246Z,100.00
2022-12-13T20:28:59.305Z,100.00
2022-12-13T20:34:02.703Z,100.00
2022-12-13T20:39:05.048Z,100.00
2022-12-13T20:44:07.616Z,100.00
2022-12-13T20:49:09.814Z,100.00
2022-12-13T20:54:10.554Z,100.00
2022-12-13T20:59:12.373Z,100.00
2022-12-13T21:04:13.103Z,100.00
2022-12-13T21:09:14.042Z,100.00
2022-12-13T21:14:24.521Z,100.00
2022-12-13T21:19:37.506Z,100.00
2022-12-13T21:24:40.558Z,100.00
2022-12-13T21:29:41.296Z,100.00
2022-12-13T21:34:42.643Z,100.00
2022-12-13T21:39:43.447Z,100.00
2022-12-13T21:44:44.273Z,100.00
2022-12-13T21:49:48.349Z,100.00
2022-12-13T21:54:52.904Z,100.00
2022-12-13T22:00:00.915Z,100.00
2022-12-13T22:05:01.659Z,100.00
2022-12-13T22:10:03.212Z,100.00
2022-12-13T22:15:07.546Z,100.00
2022-12-13T22:20:11.793Z,100.00
2022-12-13T22:25:12.574Z,100.00
2022-12-13T22:30:13.481Z,100.00
2022-12-13T22:35:14.415Z,100.00
2022-12-13T22:40:15.995Z,100.00
2022-12-13T22:45:16.797Z,100.00
2022-12-13T22:50:19.977Z,100.00
2022-12-13T22:55:20.716Z,100.00
2022-12-13T23:00:21.526Z,100.00
2022-12-13T23:05:22.279Z,100.00
2022-12-13T23:10:41.443Z,100.00
2022-12-13T23:15:47.604Z,100.00
2022-12-13T23:20:50.081Z,100.00
2022-12-13T23:25:50.840Z,100.00
2022-12-13T23:30:51.782Z,100.00
2022-12-13T23:36:09.878Z,100.00
2022-12-13T23:41:21.755Z,100.00
2022-12-13T23:46:29.668Z,100.00
2022-12-13T23:51:30.725Z,100.00
2022-12-13T23:56:31.520Z,100.00
